DLH16PY EDDF-EHAM
Flight info
| Callsign | DLH16PY |
|---|---|
| Flight time | 0h 53m |
| Altitude | 24000 |
| Route | MARUN6E/07C MARUN Y152 ARPEG Z850 ABILU DCT AMSAN T281 NORKU |
| Aircraft | A20N/M-SDE2E3FGHIRWXY/LB1 |
Departure
| Time | 2026-05-07 18:49 |
|---|---|
| Airport | Frankfurt Main Airport (EDDF) |
Arrival
| Time | 2026-05-07 19:43 |
|---|---|
| Airport | Amsterdam Airport Schiphol (EHAM) |
| Time | Latitude | Longitude | Altitude | Speed | Heading |
|---|---|---|---|---|---|
| 2026-05-07 18:18 | 50.04419 | 8.56275 | 355 ft | 0 kts | 165° |
| 2026-05-07 18:37 | 50.04427 | 8.56272 | 355 ft | 2 kts | 165° |
| 2026-05-07 18:38 | 50.04442 | 8.56269 | 355 ft | 2 kts | 181° |
| 2026-05-07 18:38 | 50.04457 | 8.56271 | 355 ft | 2 kts | 193° |
| 2026-05-07 18:38 | 50.04471 | 8.56278 | 355 ft | 2 kts | 206° |
| 2026-05-07 18:38 | 50.04485 | 8.56290 | 355 ft | 2 kts | 218° |
| 2026-05-07 18:39 | 50.04496 | 8.56307 | 356 ft | 2 kts | 231° |
| 2026-05-07 18:39 | 50.04504 | 8.56326 | 356 ft | 1 kts | 244° |
| 2026-05-07 18:39 | 50.04507 | 8.56335 | 356 ft | 1 kts | 248° |
| 2026-05-07 18:39 | 50.04507 | 8.56337 | 356 ft | 0 kts | 247° |
| 2026-05-07 18:41 | 50.04505 | 8.56329 | 356 ft | 2 kts | 247° |
| 2026-05-07 18:42 | 50.04493 | 8.56282 | 355 ft | 7 kts | 250° |
| 2026-05-07 18:42 | 50.04468 | 8.56173 | 355 ft | 12 kts | 251° |
| 2026-05-07 18:42 | 50.04426 | 8.56047 | 354 ft | 13 kts | 214° |
| 2026-05-07 18:42 | 50.04333 | 8.56061 | 354 ft | 12 kts | 159° |
| 2026-05-07 18:43 | 50.04272 | 8.56047 | 353 ft | 6 kts | 225° |
| 2026-05-07 18:43 | 50.04250 | 8.55981 | 353 ft | 6 kts | 251° |
| 2026-05-07 18:43 | 50.04218 | 8.55921 | 352 ft | 9 kts | 199° |
| 2026-05-07 18:43 | 50.04146 | 8.55941 | 352 ft | 12 kts | 159° |
| 2026-05-07 18:44 | 50.04065 | 8.55959 | 351 ft | 10 kts | 206° |
| 2026-05-07 18:44 | 50.04028 | 8.55858 | 351 ft | 11 kts | 249° |
| 2026-05-07 18:44 | 50.04000 | 8.55740 | 350 ft | 11 kts | 250° |
| 2026-05-07 18:44 | 50.03971 | 8.55619 | 349 ft | 12 kts | 250° |
| 2026-05-07 18:45 | 50.03939 | 8.55487 | 349 ft | 13 kts | 249° |
| 2026-05-07 18:45 | 50.03904 | 8.55343 | 348 ft | 14 kts | 250° |
| 2026-05-07 18:45 | 50.03879 | 8.55237 | 347 ft | 8 kts | 249° |
| 2026-05-07 18:45 | 50.03855 | 8.55138 | 347 ft | 10 kts | 250° |
| 2026-05-07 18:46 | 50.03823 | 8.55006 | 346 ft | 15 kts | 251° |
| 2026-05-07 18:46 | 50.03781 | 8.54826 | 345 ft | 19 kts | 250° |
| 2026-05-07 18:46 | 50.03742 | 8.54665 | 344 ft | 13 kts | 250° |
| 2026-05-07 18:46 | 50.03709 | 8.54524 | 343 ft | 13 kts | 250° |
| 2026-05-07 18:47 | 50.03674 | 8.54382 | 343 ft | 14 kts | 249° |
| 2026-05-07 18:47 | 50.03628 | 8.54308 | 342 ft | 0 kts | 197° |
| 2026-05-07 18:47 | 50.03624 | 8.54306 | 342 ft | 2 kts | 187° |
| 2026-05-07 18:48 | 50.03598 | 8.54313 | 342 ft | 3 kts | 161° |
| 2026-05-07 18:48 | 50.03553 | 8.54339 | 341 ft | 11 kts | 160° |
| 2026-05-07 18:48 | 50.03503 | 8.54406 | 341 ft | 11 kts | 112° |
| 2026-05-07 18:48 | 50.03536 | 8.54610 | 342 ft | 27 kts | 73° |
| 2026-05-07 18:49 | 50.03689 | 8.55257 | 346 ft | 98 kts | 70° |
| 2026-05-07 18:49 | 50.04011 | 8.56612 | 371 ft | 157 kts | 69° |
| 2026-05-07 18:49 | 50.04406 | 8.58286 | 889 ft | 166 kts | 69° |
| 2026-05-07 18:49 | 50.04805 | 8.59977 | 1621 ft | 169 kts | 69° |
| 2026-05-07 18:50 | 50.05201 | 8.61655 | 2348 ft | 172 kts | 68° |
| 2026-05-07 18:50 | 50.05865 | 8.63265 | 2782 ft | 187 kts | 34° |
| 2026-05-07 18:50 | 50.07149 | 8.63784 | 3254 ft | 202 kts | 358° |
| 2026-05-07 18:50 | 50.08609 | 8.63605 | 3706 ft | 222 kts | 356° |
| 2026-05-07 18:51 | 50.10164 | 8.63459 | 4412 ft | 226 kts | 357° |
| 2026-05-07 18:51 | 50.11773 | 8.63338 | 4869 ft | 247 kts | 358° |
| 2026-05-07 18:51 | 50.13564 | 8.63213 | 5188 ft | 265 kts | 358° |
| 2026-05-07 18:51 | 50.15391 | 8.63091 | 6084 ft | 267 kts | 357° |
| 2026-05-07 18:52 | 50.17240 | 8.62967 | 7003 ft | 268 kts | 357° |
| 2026-05-07 18:52 | 50.19115 | 8.62842 | 7630 ft | 271 kts | 357° |
| 2026-05-07 18:52 | 50.20988 | 8.62716 | 7967 ft | 273 kts | 357° |
| 2026-05-07 18:52 | 50.22898 | 8.62586 | 8020 ft | 273 kts | 357° |
| 2026-05-07 18:53 | 50.24778 | 8.62459 | 8034 ft | 273 kts | 357° |
| 2026-05-07 18:53 | 50.26686 | 8.62330 | 8044 ft | 274 kts | 357° |
| 2026-05-07 18:53 | 50.28596 | 8.62201 | 8432 ft | 282 kts | 357° |
| 2026-05-07 18:53 | 50.30552 | 8.62071 | 9382 ft | 282 kts | 356° |
| 2026-05-07 18:54 | 50.32507 | 8.61946 | 10243 ft | 284 kts | 357° |
| 2026-05-07 18:54 | 50.34504 | 8.61912 | 10818 ft | 297 kts | 359° |
| 2026-05-07 18:54 | 50.36620 | 8.61910 | 11215 ft | 315 kts | 359° |
| 2026-05-07 18:54 | 50.38863 | 8.61914 | 11597 ft | 332 kts | 359° |
| 2026-05-07 18:55 | 50.41226 | 8.61920 | 12239 ft | 340 kts | 359° |
| 2026-05-07 18:55 | 50.43587 | 8.61936 | 12762 ft | 343 kts | 0° |
| 2026-05-07 18:55 | 50.45962 | 8.62123 | 13017 ft | 346 kts | 3° |
| 2026-05-07 18:55 | 50.48383 | 8.62441 | 13027 ft | 351 kts | 4° |
| 2026-05-07 18:56 | 50.50835 | 8.62790 | 13032 ft | 352 kts | 4° |
| 2026-05-07 18:56 | 50.53251 | 8.63137 | 13039 ft | 352 kts | 4° |
| 2026-05-07 18:56 | 50.55677 | 8.63484 | 13042 ft | 352 kts | 4° |
| 2026-05-07 18:56 | 50.58106 | 8.63830 | 13037 ft | 352 kts | 4° |
| 2026-05-07 18:57 | 50.60567 | 8.64179 | 13038 ft | 352 kts | 4° |
| 2026-05-07 18:57 | 50.62983 | 8.64521 | 13047 ft | 352 kts | 4° |
| 2026-05-07 18:57 | 50.65438 | 8.64867 | 13050 ft | 352 kts | 4° |
| 2026-05-07 18:57 | 50.67864 | 8.65209 | 13041 ft | 352 kts | 4° |
| 2026-05-07 18:58 | 50.70312 | 8.65555 | 13038 ft | 352 kts | 4° |
| 2026-05-07 18:58 | 50.72751 | 8.65900 | 13034 ft | 352 kts | 4° |
| 2026-05-07 18:58 | 50.75192 | 8.66246 | 13040 ft | 352 kts | 4° |
| 2026-05-07 18:58 | 50.77600 | 8.66587 | 13039 ft | 352 kts | 4° |
| 2026-05-07 18:59 | 50.80046 | 8.66753 | 13069 ft | 354 kts | 353° |
| 2026-05-07 18:59 | 50.82414 | 8.65590 | 13560 ft | 358 kts | 330° |
| 2026-05-07 18:59 | 50.84322 | 8.63203 | 14434 ft | 355 kts | 312° |
| 2026-05-07 18:59 | 50.85910 | 8.60272 | 15183 ft | 357 kts | 309° |
| 2026-05-07 19:00 | 50.87523 | 8.57221 | 15837 ft | 361 kts | 309° |
| 2026-05-07 19:00 | 50.89124 | 8.54197 | 16496 ft | 365 kts | 309° |
| 2026-05-07 19:00 | 50.90770 | 8.51098 | 17142 ft | 369 kts | 309° |
| 2026-05-07 19:00 | 50.92408 | 8.48024 | 17775 ft | 372 kts | 309° |
| 2026-05-07 19:01 | 50.94079 | 8.44890 | 18419 ft | 375 kts | 309° |
| 2026-05-07 19:01 | 50.95770 | 8.41719 | 19041 ft | 378 kts | 309° |
| 2026-05-07 19:01 | 50.97453 | 8.38557 | 19631 ft | 381 kts | 309° |
| 2026-05-07 19:01 | 50.99166 | 8.35340 | 20223 ft | 384 kts | 310° |
| 2026-05-07 19:02 | 51.01004 | 8.32272 | 20805 ft | 388 kts | 316° |
| 2026-05-07 19:02 | 51.03085 | 8.29568 | 21388 ft | 392 kts | 323° |
| 2026-05-07 19:02 | 51.05388 | 8.27249 | 21950 ft | 396 kts | 328° |
| 2026-05-07 19:02 | 51.07792 | 8.25103 | 22475 ft | 400 kts | 329° |
| 2026-05-07 19:03 | 51.10264 | 8.22939 | 23004 ft | 404 kts | 329° |
| 2026-05-07 19:03 | 51.12725 | 8.20774 | 23528 ft | 407 kts | 329° |
| 2026-05-07 19:03 | 51.15187 | 8.18598 | 23923 ft | 411 kts | 329° |
| 2026-05-07 19:03 | 51.17702 | 8.16367 | 24004 ft | 411 kts | 329° |
| 2026-05-07 19:04 | 51.20187 | 8.14154 | 24014 ft | 411 kts | 329° |
| 2026-05-07 19:04 | 51.22671 | 8.11935 | 24019 ft | 411 kts | 329° |
| 2026-05-07 19:04 | 51.25147 | 8.09720 | 24020 ft | 410 kts | 329° |
| 2026-05-07 19:04 | 51.27625 | 8.07500 | 24021 ft | 410 kts | 329° |
| 2026-05-07 19:05 | 51.30115 | 8.05265 | 24022 ft | 410 kts | 329° |
| 2026-05-07 19:05 | 51.32583 | 8.03047 | 24025 ft | 410 kts | 329° |
| 2026-05-07 19:05 | 51.35063 | 8.00814 | 24028 ft | 410 kts | 329° |
| 2026-05-07 19:05 | 51.37529 | 7.98590 | 24030 ft | 410 kts | 329° |
| 2026-05-07 19:06 | 51.40009 | 7.96318 | 24034 ft | 410 kts | 327° |
| 2026-05-07 19:06 | 51.44743 | 7.91305 | 24044 ft | 409 kts | 323° |
| 2026-05-07 19:06 | 51.47087 | 7.88679 | 24044 ft | 409 kts | 323° |
| 2026-05-07 19:07 | 51.49384 | 7.86095 | 24046 ft | 409 kts | 323° |
| 2026-05-07 19:07 | 51.51725 | 7.83462 | 24048 ft | 409 kts | 323° |
| 2026-05-07 19:07 | 51.54036 | 7.80861 | 24049 ft | 410 kts | 323° |
| 2026-05-07 19:07 | 51.56374 | 7.78230 | 24051 ft | 410 kts | 323° |
| 2026-05-07 19:08 | 51.58694 | 7.75617 | 24052 ft | 410 kts | 324° |
| 2026-05-07 19:08 | 51.61021 | 7.72993 | 24053 ft | 410 kts | 324° |
| 2026-05-07 19:08 | 51.63349 | 7.70366 | 24054 ft | 410 kts | 324° |
| 2026-05-07 19:08 | 51.65705 | 7.67704 | 24054 ft | 410 kts | 323° |
| 2026-05-07 19:09 | 51.68010 | 7.65097 | 24056 ft | 410 kts | 323° |
| 2026-05-07 19:09 | 51.70369 | 7.62425 | 24057 ft | 410 kts | 323° |
| 2026-05-07 19:09 | 51.72691 | 7.59790 | 24057 ft | 411 kts | 323° |
| 2026-05-07 19:09 | 51.75016 | 7.57148 | 24056 ft | 410 kts | 323° |
| 2026-05-07 19:10 | 51.77346 | 7.54499 | 24057 ft | 410 kts | 323° |
| 2026-05-07 19:10 | 51.79661 | 7.51862 | 24059 ft | 410 kts | 323° |
| 2026-05-07 19:10 | 51.81975 | 7.49223 | 24056 ft | 410 kts | 323° |
| 2026-05-07 19:10 | 51.84288 | 7.46582 | 24056 ft | 410 kts | 323° |
| 2026-05-07 19:11 | 51.86636 | 7.43897 | 24058 ft | 410 kts | 323° |
| 2026-05-07 19:11 | 51.88940 | 7.41258 | 24057 ft | 410 kts | 324° |
| 2026-05-07 19:11 | 51.91265 | 7.38593 | 24060 ft | 410 kts | 324° |
| 2026-05-07 19:11 | 51.93587 | 7.35929 | 24057 ft | 410 kts | 324° |
| 2026-05-07 19:12 | 51.95923 | 7.33241 | 24058 ft | 410 kts | 323° |
| 2026-05-07 19:12 | 51.98239 | 7.30563 | 24057 ft | 410 kts | 323° |
| 2026-05-07 19:12 | 52.00540 | 7.27885 | 24056 ft | 410 kts | 321° |
| 2026-05-07 19:12 | 52.02489 | 7.24590 | 24027 ft | 407 kts | 301° |
| 2026-05-07 19:13 | 52.03757 | 7.20529 | 24053 ft | 406 kts | 293° |
| 2026-05-07 19:13 | 52.04915 | 7.16301 | 24056 ft | 407 kts | 293° |
| 2026-05-07 19:13 | 52.06064 | 7.12137 | 24057 ft | 407 kts | 293° |
| 2026-05-07 19:13 | 52.07245 | 7.07971 | 24057 ft | 406 kts | 294° |
| 2026-05-07 19:14 | 52.08429 | 7.03878 | 23866 ft | 400 kts | 294° |
| 2026-05-07 19:14 | 52.09621 | 6.99812 | 23272 ft | 398 kts | 295° |
| 2026-05-07 19:14 | 52.10813 | 6.95791 | 22641 ft | 397 kts | 295° |
| 2026-05-07 19:14 | 52.12008 | 6.91808 | 22065 ft | 394 kts | 295° |
| 2026-05-07 19:15 | 52.13215 | 6.87783 | 21493 ft | 392 kts | 295° |
| 2026-05-07 19:15 | 52.14396 | 6.83834 | 20933 ft | 389 kts | 295° |
| 2026-05-07 19:15 | 52.15564 | 6.79914 | 20377 ft | 386 kts | 295° |
| 2026-05-07 19:15 | 52.16168 | 6.77884 | 20087 ft | 385 kts | 295° |
| 2026-05-07 19:16 | 52.17229 | 6.74311 | 19571 ft | 383 kts | 295° |
| 2026-05-07 19:16 | 52.18364 | 6.70482 | 19019 ft | 380 kts | 295° |
| 2026-05-07 19:16 | 52.19513 | 6.66593 | 18469 ft | 378 kts | 295° |
| 2026-05-07 19:16 | 52.20645 | 6.62758 | 17936 ft | 375 kts | 295° |
| 2026-05-07 19:17 | 52.21530 | 6.59754 | 17533 ft | 373 kts | 295° |
| 2026-05-07 19:17 | 52.22534 | 6.56339 | 17071 ft | 370 kts | 295° |
| 2026-05-07 19:17 | 52.23643 | 6.52565 | 16556 ft | 367 kts | 295° |
| 2026-05-07 19:17 | 52.24727 | 6.48870 | 16046 ft | 364 kts | 295° |
| 2026-05-07 19:18 | 52.25814 | 6.45155 | 15536 ft | 361 kts | 295° |
| 2026-05-07 19:18 | 52.26878 | 6.41519 | 15035 ft | 358 kts | 295° |
| 2026-05-07 19:18 | 52.27945 | 6.37862 | 14532 ft | 356 kts | 295° |
| 2026-05-07 19:18 | 52.28992 | 6.34267 | 14134 ft | 351 kts | 295° |
| 2026-05-07 19:19 | 52.30051 | 6.30619 | 13863 ft | 352 kts | 295° |
| 2026-05-07 19:19 | 52.31086 | 6.27043 | 13619 ft | 351 kts | 295° |
| 2026-05-07 19:19 | 52.32132 | 6.23426 | 13364 ft | 351 kts | 295° |
| 2026-05-07 19:19 | 52.33160 | 6.19875 | 13115 ft | 349 kts | 294° |
| 2026-05-07 19:20 | 52.33926 | 6.16128 | 12833 ft | 348 kts | 276° |
| 2026-05-07 19:20 | 52.33765 | 6.12117 | 12786 ft | 371 kts | 261° |
| 2026-05-07 19:20 | 52.33308 | 6.07809 | 12795 ft | 394 kts | 260° |
| 2026-05-07 19:20 | 52.32836 | 6.03409 | 12784 ft | 399 kts | 260° |
| 2026-05-07 19:21 | 52.32383 | 5.98909 | 12783 ft | 400 kts | 261° |
| 2026-05-07 19:21 | 52.31955 | 5.94399 | 12782 ft | 400 kts | 261° |
| 2026-05-07 19:21 | 52.31549 | 5.89954 | 12791 ft | 400 kts | 262° |
| 2026-05-07 19:21 | 52.31144 | 5.85435 | 12785 ft | 400 kts | 262° |
| 2026-05-07 19:22 | 52.30751 | 5.80990 | 12787 ft | 400 kts | 262° |
| 2026-05-07 19:22 | 52.30354 | 5.76484 | 12600 ft | 400 kts | 262° |
| 2026-05-07 19:22 | 52.29959 | 5.72002 | 12186 ft | 397 kts | 262° |
| 2026-05-07 19:22 | 52.29572 | 5.67610 | 11720 ft | 394 kts | 262° |
| 2026-05-07 19:23 | 52.29181 | 5.63199 | 11244 ft | 392 kts | 262° |
| 2026-05-07 19:23 | 52.28796 | 5.58860 | 10741 ft | 390 kts | 262° |
| 2026-05-07 19:23 | 52.28407 | 5.54494 | 10326 ft | 384 kts | 262° |
| 2026-05-07 19:23 | 52.28030 | 5.50286 | 10228 ft | 365 kts | 262° |
| 2026-05-07 19:24 | 52.27675 | 5.46329 | 10138 ft | 347 kts | 262° |
| 2026-05-07 19:24 | 52.27331 | 5.42513 | 10085 ft | 331 kts | 262° |
| 2026-05-07 19:24 | 52.27006 | 5.38915 | 9709 ft | 316 kts | 262° |
| 2026-05-07 19:24 | 52.26693 | 5.35459 | 9341 ft | 297 kts | 262° |
| 2026-05-07 19:25 | 52.26400 | 5.32226 | 9025 ft | 280 kts | 261° |
| 2026-05-07 19:25 | 52.26122 | 5.29173 | 8718 ft | 273 kts | 261° |
| 2026-05-07 19:25 | 52.25843 | 5.26104 | 8402 ft | 272 kts | 261° |
| 2026-05-07 19:25 | 52.25568 | 5.23093 | 8107 ft | 271 kts | 261° |
| 2026-05-07 19:26 | 52.25288 | 5.20052 | 7794 ft | 269 kts | 261° |
| 2026-05-07 19:26 | 52.25013 | 5.17074 | 7485 ft | 268 kts | 261° |
| 2026-05-07 19:26 | 52.24734 | 5.14067 | 7187 ft | 266 kts | 261° |
| 2026-05-07 19:26 | 52.24461 | 5.11126 | 6906 ft | 264 kts | 261° |
| 2026-05-07 19:27 | 52.24185 | 5.08160 | 6614 ft | 263 kts | 261° |
| 2026-05-07 19:27 | 52.23909 | 5.05218 | 6302 ft | 261 kts | 261° |
| 2026-05-07 19:27 | 52.23637 | 5.02337 | 6014 ft | 259 kts | 261° |
| 2026-05-07 19:27 | 52.23363 | 4.99440 | 5738 ft | 257 kts | 261° |
| 2026-05-07 19:28 | 52.23096 | 4.96603 | 5477 ft | 255 kts | 261° |
| 2026-05-07 19:28 | 52.22761 | 4.93765 | 5171 ft | 254 kts | 249° |
| 2026-05-07 19:28 | 52.21777 | 4.91460 | 4892 ft | 258 kts | 217° |
| 2026-05-07 19:28 | 52.20142 | 4.90220 | 4586 ft | 262 kts | 188° |
| 2026-05-07 19:29 | 52.18336 | 4.90004 | 4158 ft | 264 kts | 184° |
| 2026-05-07 19:29 | 52.16589 | 4.89157 | 3773 ft | 265 kts | 211° |
| 2026-05-07 19:29 | 52.15307 | 4.87053 | 3436 ft | 263 kts | 241° |
| 2026-05-07 19:29 | 52.14845 | 4.84298 | 3268 ft | 252 kts | 272° |
| 2026-05-07 19:30 | 52.15139 | 4.81555 | 3072 ft | 239 kts | 291° |
| 2026-05-07 19:30 | 52.15947 | 4.79281 | 2636 ft | 236 kts | 309° |
| 2026-05-07 19:30 | 52.16974 | 4.77218 | 2376 ft | 231 kts | 314° |
| 2026-05-07 19:30 | 52.18250 | 4.75809 | 2054 ft | 223 kts | 354° |
| 2026-05-07 19:31 | 52.19725 | 4.76132 | 1804 ft | 216 kts | 21° |
| 2026-05-07 19:31 | 52.21154 | 4.76764 | 1536 ft | 214 kts | 13° |
| 2026-05-07 19:31 | 52.22635 | 4.77111 | 1264 ft | 213 kts | 8° |
| 2026-05-07 19:31 | 52.24117 | 4.77291 | 992 ft | 212 kts | 5° |
| 2026-05-07 19:32 | 52.25532 | 4.77399 | 696 ft | 196 kts | 5° |
| 2026-05-07 19:32 | 52.26918 | 4.77521 | 713 ft | 209 kts | 5° |
| 2026-05-07 19:32 | 52.28357 | 4.77649 | 1440 ft | 219 kts | 5° |
| 2026-05-07 19:32 | 52.29908 | 4.77792 | 1913 ft | 219 kts | 6° |
| 2026-05-07 19:33 | 52.31399 | 4.77984 | 2300 ft | 217 kts | 16° |
| 2026-05-07 19:33 | 52.32537 | 4.79397 | 2556 ft | 209 kts | 69° |
| 2026-05-07 19:33 | 52.32525 | 4.81675 | 2704 ft | 210 kts | 116° |
| 2026-05-07 19:33 | 52.31560 | 4.83497 | 2862 ft | 217 kts | 146° |
| 2026-05-07 19:34 | 52.30151 | 4.84461 | 2985 ft | 223 kts | 161° |
| 2026-05-07 19:34 | 52.28666 | 4.85493 | 2992 ft | 240 kts | 149° |
| 2026-05-07 19:34 | 52.27261 | 4.86767 | 3432 ft | 227 kts | 150° |
| 2026-05-07 19:34 | 52.25864 | 4.87936 | 4103 ft | 230 kts | 152° |
| 2026-05-07 19:35 | 52.24439 | 4.89078 | 4657 ft | 227 kts | 156° |
| 2026-05-07 19:35 | 52.22898 | 4.89523 | 4944 ft | 228 kts | 186° |
| 2026-05-07 19:35 | 52.21450 | 4.88609 | 4989 ft | 228 kts | 218° |
| 2026-05-07 19:35 | 52.20513 | 4.86540 | 5001 ft | 229 kts | 250° |
| 2026-05-07 19:36 | 52.20089 | 4.84048 | 5011 ft | 232 kts | 256° |
| 2026-05-07 19:36 | 52.19582 | 4.81550 | 5006 ft | 232 kts | 244° |
| 2026-05-07 19:36 | 52.18850 | 4.79240 | 4999 ft | 232 kts | 240° |
| 2026-05-07 19:36 | 52.18059 | 4.76940 | 4994 ft | 232 kts | 240° |
| 2026-05-07 19:37 | 52.17273 | 4.74681 | 5002 ft | 231 kts | 240° |
| 2026-05-07 19:37 | 52.16473 | 4.72387 | 4998 ft | 232 kts | 240° |
| 2026-05-07 19:37 | 52.15684 | 4.70127 | 4996 ft | 232 kts | 240° |
| 2026-05-07 19:37 | 52.14883 | 4.67830 | 4997 ft | 232 kts | 240° |
| 2026-05-07 19:38 | 52.14095 | 4.65568 | 5001 ft | 232 kts | 239° |
| 2026-05-07 19:38 | 52.13347 | 4.63232 | 5001 ft | 232 kts | 251° |
| 2026-05-07 19:38 | 52.13234 | 4.60675 | 4882 ft | 233 kts | 283° |
| 2026-05-07 19:38 | 52.13974 | 4.58344 | 4487 ft | 235 kts | 315° |
| 2026-05-07 19:39 | 52.15201 | 4.56620 | 4119 ft | 237 kts | 324° |
| 2026-05-07 19:39 | 52.16534 | 4.55024 | 3747 ft | 239 kts | 326° |
| 2026-05-07 19:39 | 52.18024 | 4.53839 | 3351 ft | 239 kts | 352° |
| 2026-05-07 19:39 | 52.19635 | 4.54040 | 2971 ft | 235 kts | 24° |
| 2026-05-07 19:40 | 52.20928 | 4.55559 | 2581 ft | 227 kts | 50° |
| 2026-05-07 19:40 | 52.21971 | 4.57472 | 2231 ft | 228 kts | 49° |
| 2026-05-07 19:40 | 52.23047 | 4.59291 | 1953 ft | 215 kts | 49° |
| 2026-05-07 19:40 | 52.23972 | 4.61101 | 1673 ft | 208 kts | 54° |
| 2026-05-07 19:41 | 52.24818 | 4.63013 | 1395 ft | 205 kts | 57° |
| 2026-05-07 19:41 | 52.25560 | 4.64901 | 1103 ft | 187 kts | 60° |
| 2026-05-07 19:41 | 52.26210 | 4.66637 | 953 ft | 175 kts | 59° |
| 2026-05-07 19:41 | 52.26835 | 4.68290 | 1267 ft | 172 kts | 58° |
| 2026-05-07 19:42 | 52.27465 | 4.69980 | 923 ft | 174 kts | 58° |
| 2026-05-07 19:42 | 52.28100 | 4.71641 | 430 ft | 167 kts | 57° |
| 2026-05-07 19:42 | 52.28690 | 4.73154 | 130 ft | 153 kts | 60° |
| 2026-05-07 19:42 | 52.29229 | 4.74555 | -3 ft | 134 kts | 58° |
| 2026-05-07 19:43 | 52.29604 | 4.75541 | -4 ft | 39 kts | 56° |
| 2026-05-07 19:43 | 52.29694 | 4.75705 | -4 ft | 16 kts | 40° |
| 2026-05-07 19:43 | 52.29782 | 4.75805 | -4 ft | 14 kts | 30° |
| 2026-05-07 19:43 | 52.29874 | 4.75887 | -4 ft | 15 kts | 28° |
| 2026-05-07 19:44 | 52.29971 | 4.75971 | -3 ft | 16 kts | 33° |
| 2026-05-07 19:44 | 52.30042 | 4.76123 | -4 ft | 18 kts | 60° |
| 2026-05-07 19:44 | 52.30123 | 4.76278 | -4 ft | 16 kts | 9° |
| 2026-05-07 19:44 | 52.30213 | 4.76251 | -3 ft | 12 kts | 336° |
| 2026-05-07 19:45 | 52.30263 | 4.76231 | -4 ft | 5 kts | 36° |
| 2026-05-07 19:45 | 52.30286 | 4.76279 | -4 ft | 0 kts | 58° |